sensor_id;sensor_type;location;lat;lon;timestamp;pressure;altitude;pressure_sealevel;temperature;humidity
58243;BME280;50118;53.232;8.252;2023-05-01T00:02:11;101853.91;;;3.34;100.00
58243;BME280;50118;53.232;8.252;2023-05-01T00:04:37;101855.81;;;3.30;100.00
58243;BME280;50118;53.232;8.252;2023-05-01T00:07:02;101846.34;;;3.26;100.00
58243;BME280;50118;53.232;8.252;2023-05-01T00:09:28;101843.84;;;3.23;100.00
58243;BME280;50118;53.232;8.252;2023-05-01T00:11:53;101836.06;;;3.20;100.00
58243;BME280;50118;53.232;8.252;2023-05-01T00:14:18;101840.63;;;3.16;100.00
58243;BME280;50118;53.232;8.252;2023-05-01T00:16:44;101836.44;;;3.12;100.00
58243;BME280;50118;53.232;8.252;2023-05-01T00:19:11;101827.75;;;3.10;100.00
58243;BME280;50118;53.232;8.252;2023-05-01T00:21:36;101828.59;;;3.11;100.00
58243;BME280;50118;53.232;8.252;2023-05-01T00:24:02;101826.25;;;3.05;100.00
58243;BME280;50118;53.232;8.252;2023-05-01T00:26:27;101825.59;;;2.99;100.00
58243;BME280;50118;53.232;8.252;2023-05-01T00:28:56;101817.00;;;2.96;100.00
58243;BME280;50118;53.232;8.252;2023-05-01T00:31:23;101811.78;;;2.94;100.00
58243;BME280;50118;53.232;8.252;2023-05-01T00:33:48;101813.59;;;2.94;100.00
58243;BME280;50118;53.232;8.252;2023-05-01T00:36:14;101797.00;;;2.92;100.00
58243;BME280;50118;53.232;8.252;2023-05-01T00:38:39;101810.09;;;2.93;100.00
58243;BME280;50118;53.232;8.252;2023-05-01T00:41:05;101801.44;;;2.91;100.00
58243;BME280;50118;53.232;8.252;2023-05-01T00:43:30;101804.97;;;2.90;100.00
58243;BME280;50118;53.232;8.252;2023-05-01T00:45:56;101803.41;;;2.86;100.00
58243;BME280;50118;53.232;8.252;2023-05-01T00:48:22;101801.75;;;2.84;100.00
58243;BME280;50118;53.232;8.252;2023-05-01T00:50:47;101796.63;;;2.80;100.00
58243;BME280;50118;53.232;8.252;2023-05-01T00:53:13;101793.16;;;2.80;100.00
58243;BME280;50118;53.232;8.252;2023-05-01T00:55:40;101787.19;;;2.76;100.00
58243;BME280;50118;53.232;8.252;2023-05-01T00:58:06;101790.72;;;2.75;100.00
58243;BME280;50118;53.232;8.252;2023-05-01T01:00:33;101789.88;;;2.75;100.00
58243;BME280;50118;53.232;8.252;2023-05-01T01:02:58;101781.22;;;2.73;100.00
58243;BME280;50118;53.232;8.252;2023-05-01T01:05:25;101779.56;;;2.70;100.00
58243;BME280;50118;53.232;8.252;2023-05-01T01:08:25;101780.50;;;2.69;100.00
58243;BME280;50118;53.232;8.252;2023-05-01T01:13:46;101776.22;;;2.67;100.00
58243;BME280;50118;53.232;8.252;2023-05-01T01:19:01;101765.22;;;2.57;100.00
58243;BME280;50118;53.232;8.252;2023-05-01T01:21:34;101774.13;;;2.54;100.00
58243;BME280;50118;53.232;8.252;2023-05-01T01:27:04;101755.72;;;2.54;100.00
58243;BME280;50118;53.232;8.252;2023-05-01T01:33:24;101748.88;;;2.50;100.00
58243;BME280;50118;53.232;8.252;2023-05-01T01:35:26;101754.13;;;2.50;100.00
58243;BME280;50118;53.232;8.252;2023-05-01T01:38:09;101753.41;;;2.47;100.00
58243;BME280;50118;53.232;8.252;2023-05-01T01:40:49;101761.38;;;2.45;100.00
58243;BME280;50118;53.232;8.252;2023-05-01T01:43:19;101740.34;;;2.45;100.00
58243;BME280;50118;53.232;8.252;2023-05-01T01:45:48;101737.69;;;2.45;100.00
58243;BME280;50118;53.232;8.252;2023-05-01T01:48:24;101735.06;;;2.45;100.00
58243;BME280;50118;53.232;8.252;2023-05-01T01:50:52;101736.94;;;2.43;100.00
58243;BME280;50118;53.232;8.252;2023-05-01T01:53:20;101726.41;;;2.43;100.00
58243;BME280;50118;53.232;8.252;2023-05-01T01:55:47;101720.38;;;2.41;100.00
58243;BME280;50118;53.232;8.252;2023-05-01T01:58:14;101718.59;;;2.41;100.00
58243;BME280;50118;53.232;8.252;2023-05-01T02:00:43;101719.47;;;2.42;100.00
58243;BME280;50118;53.232;8.252;2023-05-01T02:03:09;101721.16;;;2.43;100.00
58243;BME280;50118;53.232;8.252;2023-05-01T02:05:38;101714.19;;;2.42;100.00
58243;BME280;50118;53.232;8.252;2023-05-01T02:08:05;101708.94;;;2.42;100.00
58243;BME280;50118;53.232;8.252;2023-05-01T02:10:32;101710.63;;;2.43;100.00
58243;BME280;50118;53.232;8.252;2023-05-01T02:12:59;101709.91;;;2.39;100.00
58243;BME280;50118;53.232;8.252;2023-05-01T02:15:26;101700.41;;;2.37;100.00
58243;BME280;50118;53.232;8.252;2023-05-01T02:17:52;101689.06;;;2.35;100.00
58243;BME280;50118;53.232;8.252;2023-05-01T02:20:19;101693.41;;;2.36;100.00
58243;BME280;50118;53.232;8.252;2023-05-01T02:22:46;101697.78;;;2.37;100.00
58243;BME280;50118;53.232;8.252;2023-05-01T02:25:13;101690.72;;;2.37;100.00
58243;BME280;50118;53.232;8.252;2023-05-01T02:27:43;101686.31;;;2.38;100.00
58243;BME280;50118;53.232;8.252;2023-05-01T02:30:11;101682.91;;;2.36;100.00
58243;BME280;50118;53.232;8.252;2023-05-01T02:32:37;101692.78;;;2.31;100.00
58243;BME280;50118;53.232;8.252;2023-05-01T02:35:02;101684.03;;;2.30;100.00
58243;BME280;50118;53.232;8.252;2023-05-01T02:37:28;101672.53;;;2.33;100.00
58243;BME280;50118;53.232;8.252;2023-05-01T02:39:55;101682.13;;;2.34;100.00
58243;BME280;50118;53.232;8.252;2023-05-01T02:42:23;101679.44;;;2.35;100.00
58243;BME280;50118;53.232;8.252;2023-05-01T02:45:03;101675.94;;;2.35;100.00
58243;BME280;50118;53.232;8.252;2023-05-01T02:47:32;101674.94;;;2.37;100.00
58243;BME280;50118;53.232;8.252;2023-05-01T02:49:59;101673.09;;;2.39;100.00
58243;BME280;50118;53.232;8.252;2023-05-01T02:52:26;101660.16;;;2.35;100.00
58243;BME280;50118;53.232;8.252;2023-05-01T02:54:51;101663.72;;;2.34;100.00
58243;BME280;50118;53.232;8.252;2023-05-01T02:57:18;101662.13;;;2.30;100.00
58243;BME280;50118;53.232;8.252;2023-05-01T02:59:44;101655.97;;;2.31;100.00
58243;BME280;50118;53.232;8.252;2023-05-01T03:02:10;101649.22;;;2.25;100.00
58243;BME280;50118;53.232;8.252;2023-05-01T03:04:35;101643.91;;;2.27;100.00
58243;BME280;50118;53.232;8.252;2023-05-01T03:07:01;101638.47;;;2.30;100.00
58243;BME280;50118;53.232;8.252;2023-05-01T03:09:26;101639.56;;;2.26;100.00
58243;BME280;50118;53.232;8.252;2023-05-01T03:11:52;101632.72;;;2.21;100.00
58243;BME280;50118;53.232;8.252;2023-05-01T03:14:17;101623.91;;;2.22;100.00
58243;BME280;50118;53.232;8.252;2023-05-01T03:16:42;101634.28;;;2.26;100.00
58243;BME280;50118;53.232;8.252;2023-05-01T03:19:08;101629.03;;;2.26;100.00
58243;BME280;50118;53.232;8.252;2023-05-01T03:21:34;101614.88;;;2.28;100.00
58243;BME280;50118;53.232;8.252;2023-05-01T03:24:01;101620.00;;;2.31;100.00
58243;BME280;50118;53.232;8.252;2023-05-01T03:26:27;101610.06;;;2.38;100.00
58243;BME280;50118;53.232;8.252;2023-05-01T03:28:52;101612.69;;;2.38;100.00
58243;BME280;50118;53.232;8.252;2023-05-01T03:31:18;101604.03;;;2.36;100.00
58243;BME280;50118;53.232;8.252;2023-05-01T03:33:43;101601.47;;;2.34;100.00
58243;BME280;50118;53.232;8.252;2023-05-01T03:36:09;101604.03;;;2.36;100.00
58243;BME280;50118;53.232;8.252;2023-05-01T03:38:37;101598.75;;;2.36;100.00
58243;BME280;50118;53.232;8.252;2023-05-01T03:41:04;101598.00;;;2.34;100.00
58243;BME280;50118;53.232;8.252;2023-05-01T03:43:30;101592.59;;;2.37;100.00
58243;BME280;50118;53.232;8.252;2023-05-01T03:45:56;101587.34;;;2.37;100.00
58243;BME280;50118;53.232;8.252;2023-05-01T03:48:22;101589.78;;;2.40;100.00
58243;BME280;50118;53.232;8.252;2023-05-01T03:50:47;101586.19;;;2.42;100.00
58243;BME280;50118;53.232;8.252;2023-05-01T03:53:13;101584.91;;;2.51;100.00
58243;BME280;50118;53.232;8.252;2023-05-01T03:55:38;101578.97;;;2.65;100.00
58243;BME280;50118;53.232;8.252;2023-05-01T03:58:04;101570.72;;;2.73;100.00
58243;BME280;50118;53.232;8.252;2023-05-01T04:00:31;101567.84;;;2.77;100.00
58243;BME280;50118;53.232;8.252;2023-05-01T04:02:57;101578.09;;;2.84;100.00
58243;BME280;50118;53.232;8.252;2023-05-01T04:05:22;101573.38;;;2.90;100.00
58243;BME280;50118;53.232;8.252;2023-05-01T04:07:48;101569.59;;;2.96;100.00
58243;BME280;50118;53.232;8.252;2023-05-01T04:10:13;101576.72;;;3.11;100.00
58243;BME280;50118;53.232;8.252;2023-05-01T04:12:39;101577.97;;;3.22;100.00
58243;BME280;50118;53.232;8.252;2023-05-01T04:15:05;101573.56;;;3.40;100.00
58243;BME280;50118;53.232;8.252;2023-05-01T04:17:31;101565.97;;;3.51;100.00
58243;BME280;50118;53.232;8.252;2023-05-01T04:19:57;101568.81;;;3.64;100.00
58243;BME280;50118;53.232;8.252;2023-05-01T04:22:22;101572.41;;;3.79;100.00
58243;BME280;50118;53.232;8.252;2023-05-01T04:24:48;101574.09;;;3.97;100.00
58243;BME280;50118;53.232;8.252;2023-05-01T04:27:13;101578.78;;;4.08;100.00
58243;BME280;50118;53.232;8.252;2023-05-01T04:29:39;101578.28;;;4.17;100.00
58243;BME280;50118;53.232;8.252;2023-05-01T04:32:06;101561.09;;;4.26;100.00
58243;BME280;50118;53.232;8.252;2023-05-01T04:34:31;101575.91;;;4.28;100.00
58243;BME280;50118;53.232;8.252;2023-05-01T04:36:57;101574.63;;;4.36;100.00
58243;BME280;50118;53.232;8.252;2023-05-01T04:39:22;101571.13;;;4.51;100.00
58243;BME280;50118;53.232;8.252;2023-05-01T04:41:48;101562.97;;;4.56;100.00
58243;BME280;50118;53.232;8.252;2023-05-01T04:44:13;101560.41;;;4.54;100.00
58243;BME280;50118;53.232;8.252;2023-05-01T04:46:39;101551.19;;;4.77;100.00
58243;BME280;50118;53.232;8.252;2023-05-01T04:49:05;101549.50;;;4.76;100.00
58243;BME280;50118;53.232;8.252;2023-05-01T04:51:30;101557.56;;;4.89;100.00
58243;BME280;50118;53.232;8.252;2023-05-01T04:53:55;101560.88;;;4.93;100.00
58243;BME280;50118;53.232;8.252;2023-05-01T04:56:21;101556.59;;;5.06;100.00
58243;BME280;50118;53.232;8.252;2023-05-01T04:58:47;101550.44;;;5.05;100.00
58243;BME280;50118;53.232;8.252;2023-05-01T05:01:12;101550.94;;;5.12;100.00
58243;BME280;50118;53.232;8.252;2023-05-01T05:03:38;101546.19;;;5.48;100.00
58243;BME280;50118;53.232;8.252;2023-05-01T05:06:03;101545.28;;;5.63;100.00
58243;BME280;50118;53.232;8.252;2023-05-01T05:08:29;101543.66;;;6.32;97.36
58243;BME280;50118;53.232;8.252;2023-05-01T05:10:56;101544.25;;;7.18;94.01
58243;BME280;50118;53.232;8.252;2023-05-01T05:13:22;101537.91;;;7.84;84.63
58243;BME280;50118;53.232;8.252;2023-05-01T05:15:47;101534.44;;;8.58;79.64
58243;BME280;50118;53.232;8.252;2023-05-01T05:18:13;101539.75;;;9.06;79.06
58243;BME280;50118;53.232;8.252;2023-05-01T05:20:38;101534.88;;;9.58;74.64
58243;BME280;50118;53.232;8.252;2023-05-01T05:23:04;101533.91;;;10.16;69.87
58243;BME280;50118;53.232;8.252;2023-05-01T05:25:30;101543.34;;;10.42;67.53
58243;BME280;50118;53.232;8.252;2023-05-01T05:27:55;101543.53;;;11.57;60.54
58243;BME280;50118;53.232;8.252;2023-05-01T05:30:21;101540.91;;;12.19;60.86
58243;BME280;50118;53.232;8.252;2023-05-01T05:32:46;101541.38;;;12.03;59.36
58243;BME280;50118;53.232;8.252;2023-05-01T05:35:12;101525.34;;;13.22;56.61
58243;BME280;50118;53.232;8.252;2023-05-01T05:37:37;101533.50;;;13.30;53.06
58243;BME280;50118;53.232;8.252;2023-05-01T05:40:03;101531.16;;;14.30;51.84
58243;BME280;50118;53.232;8.252;2023-05-01T05:42:29;101526.63;;;14.76;49.10
58243;BME280;50118;53.232;8.252;2023-05-01T05:44:55;101529.59;;;15.09;48.99
58243;BME280;50118;53.232;8.252;2023-05-01T05:47:20;101530.59;;;15.86;45.97
58243;BME280;50118;53.232;8.252;2023-05-01T05:49:46;101528.78;;;14.90;47.96
58243;BME280;50118;53.232;8.252;2023-05-01T05:52:12;101518.69;;;14.38;48.42
58243;BME280;50118;53.232;8.252;2023-05-01T05:54:38;101527.69;;;14.65;47.76
58243;BME280;50118;53.232;8.252;2023-05-01T05:57:04;101525.19;;;14.82;47.50
58243;BME280;50118;53.232;8.252;2023-05-01T05:59:30;101519.16;;;13.02;52.92
58243;BME280;50118;53.232;8.252;2023-05-01T06:01:55;101517.13;;;14.18;52.04
58243;BME280;50118;53.232;8.252;2023-05-01T06:04:24;101518.75;;;13.73;52.09
58243;BME280;50118;53.232;8.252;2023-05-01T06:06:49;101523.72;;;15.31;48.43
58243;BME280;50118;53.232;8.252;2023-05-01T06:09:15;101517.31;;;16.19;44.63
58243;BME280;50118;53.232;8.252;2023-05-01T06:11:43;101518.44;;;16.92;43.72
58243;BME280;50118;53.232;8.252;2023-05-01T06:14:09;101521.94;;;16.52;43.37
58243;BME280;50118;53.232;8.252;2023-05-01T06:16:35;101513.84;;;16.60;45.51
58243;BME280;50118;53.232;8.252;2023-05-01T06:19:00;101515.25;;;16.80;42.13
58243;BME280;50118;53.232;8.252;2023-05-01T06:21:26;101509.28;;;16.36;46.11
58243;BME280;50118;53.232;8.252;2023-05-01T06:23:52;101507.97;;;15.10;46.97
58243;BME280;50118;53.232;8.252;2023-05-01T06:26:17;101512.53;;;16.64;44.47
58243;BME280;50118;53.232;8.252;2023-05-01T06:28:43;101503.31;;;17.97;42.44
58243;BME280;50118;53.232;8.252;2023-05-01T06:31:08;101510.78;;;18.49;39.29
58243;BME280;50118;53.232;8.252;2023-05-01T06:33:34;101507.16;;;16.72;43.75
58243;BME280;50118;53.232;8.252;2023-05-01T06:35:59;101497.88;;;17.49;40.77
58243;BME280;50118;53.232;8.252;2023-05-01T06:38:26;101491.88;;;17.30;41.69
58243;BME280;50118;53.232;8.252;2023-05-01T06:40:51;101491.03;;;17.13;43.11
58243;BME280;50118;53.232;8.252;2023-05-01T06:43:17;101487.97;;;17.33;43.15
58243;BME280;50118;53.232;8.252;2023-05-01T06:45:42;101482.59;;;17.81;42.26
58243;BME280;50118;53.232;8.252;2023-05-01T06:48:08;101491.16;;;17.92;41.70
58243;BME280;50118;53.232;8.252;2023-05-01T06:50:33;101484.50;;;17.72;41.42
58243;BME280;50118;53.232;8.252;2023-05-01T06:52:59;101474.78;;;17.63;42.90
58243;BME280;50118;53.232;8.252;2023-05-01T06:55:27;101481.94;;;16.81;43.80
58243;BME280;50118;53.232;8.252;2023-05-01T06:57:58;101470.31;;;17.39;43.16
58243;BME280;50118;53.232;8.252;2023-05-01T07:00:24;101465.91;;;17.94;42.64
58243;BME280;50118;53.232;8.252;2023-05-01T07:02:49;101471.47;;;17.44;40.95
58243;BME280;50118;53.232;8.252;2023-05-01T07:05:15;101471.13;;;17.39;42.42
58243;BME280;50118;53.232;8.252;2023-05-01T07:07:41;101463.44;;;18.15;42.38
58243;BME280;50118;53.232;8.252;2023-05-01T07:10:06;101465.22;;;18.54;39.12
58243;BME280;50118;53.232;8.252;2023-05-01T07:12:32;101461.50;;;18.01;40.43
58243;BME280;50118;53.232;8.252;2023-05-01T07:14:57;101467.53;;;18.57;38.15
58243;BME280;50118;53.232;8.252;2023-05-01T07:17:27;101461.09;;;17.25;41.44
58243;BME280;50118;53.232;8.252;2023-05-01T07:19:53;101460.94;;;16.69;43.46
58243;BME280;50118;53.232;8.252;2023-05-01T07:22:19;101465.22;;;18.00;43.13
58243;BME280;50118;53.232;8.252;2023-05-01T07:24:44;101452.50;;;17.69;41.64
58243;BME280;50118;53.232;8.252;2023-05-01T07:27:10;101454.03;;;17.15;43.33
58243;BME280;50118;53.232;8.252;2023-05-01T07:29:37;101458.03;;;17.20;43.85
58243;BME280;50118;53.232;8.252;2023-05-01T07:32:03;101457.09;;;15.87;46.80
58243;BME280;50118;53.232;8.252;2023-05-01T07:34:30;101448.66;;;16.99;44.24
58243;BME280;50118;53.232;8.252;2023-05-01T07:36:56;101442.31;;;17.96;42.37
58243;BME280;50118;53.232;8.252;2023-05-01T07:39:22;101455.38;;;18.61;40.21
58243;BME280;50118;53.232;8.252;2023-05-01T07:41:47;101452.06;;;18.97;41.22
58243;BME280;50118;53.232;8.252;2023-05-01T07:44:13;101453.00;;;18.12;42.27
58243;BME280;50118;53.232;8.252;2023-05-01T07:46:38;101442.53;;;18.63;46.08
58243;BME280;50118;53.232;8.252;2023-05-01T07:49:04;101446.53;;;18.67;41.84
58243;BME280;50118;53.232;8.252;2023-05-01T07:51:30;101445.22;;;18.63;41.01
58243;BME280;50118;53.232;8.252;2023-05-01T07:53:55;101437.19;;;18.55;41.33
58243;BME280;50118;53.232;8.252;2023-05-01T07:56:21;101431.03;;;18.23;40.79
58243;BME280;50118;53.232;8.252;2023-05-01T07:58:47;101428.19;;;18.86;40.66
58243;BME280;50118;53.232;8.252;2023-05-01T08:01:13;101428.34;;;18.70;39.79
58243;BME280;50118;53.232;8.252;2023-05-01T08:03:38;101425.19;;;17.88;38.99
58243;BME280;50118;53.232;8.252;2023-05-01T08:06:05;101419.00;;;17.32;40.40
58243;BME280;50118;53.232;8.252;2023-05-01T08:08:30;101421.97;;;18.16;40.82
58243;BME280;50118;53.232;8.252;2023-05-01T08:10:55;101421.41;;;18.29;39.57
58243;BME280;50118;53.232;8.252;2023-05-01T08:13:21;101422.66;;;17.87;41.51
58243;BME280;50118;53.232;8.252;2023-05-01T08:15:47;101427.97;;;18.26;44.86
58243;BME280;50118;53.232;8.252;2023-05-01T08:18:13;101427.84;;;17.57;40.98
58243;BME280;50118;53.232;8.252;2023-05-01T08:20:50;101414.44;;;17.72;40.38
58243;BME280;50118;53.232;8.252;2023-05-01T08:23:16;101414.13;;;17.19;41.49
58243;BME280;50118;53.232;8.252;2023-05-01T08:25:42;101413.31;;;17.18;41.35
58243;BME280;50118;53.232;8.252;2023-05-01T08:28:09;101421.03;;;17.30;42.66
58243;BME280;50118;53.232;8.252;2023-05-01T08:30:34;101418.78;;;17.81;40.11
58243;BME280;50118;53.232;8.252;2023-05-01T08:33:00;101422.56;;;18.26;43.12
58243;BME280;50118;53.232;8.252;2023-05-01T08:35:26;101415.84;;;17.99;40.99
58243;BME280;50118;53.232;8.252;2023-05-01T08:37:51;101412.00;;;17.94;41.42
58243;BME280;50118;53.232;8.252;2023-05-01T08:40:16;101414.31;;;18.51;40.96
58243;BME280;50118;53.232;8.252;2023-05-01T08:42:42;101415.03;;;18.68;38.89
58243;BME280;50118;53.232;8.252;2023-05-01T08:45:08;101413.38;;;18.82;41.90
58243;BME280;50118;53.232;8.252;2023-05-01T08:47:35;101417.44;;;19.16;38.67
58243;BME280;50118;53.232;8.252;2023-05-01T08:50:03;101410.50;;;18.22;40.48
58243;BME280;50118;53.232;8.252;2023-05-01T08:52:29;101411.38;;;18.15;41.09
58243;BME280;50118;53.232;8.252;2023-05-01T08:54:56;101403.81;;;18.94;39.75
58243;BME280;50118;53.232;8.252;2023-05-01T08:57:24;101412.31;;;19.06;40.04
58243;BME280;50118;53.232;8.252;2023-05-01T08:59:52;101412.41;;;19.13;40.57
58243;BME280;50118;53.232;8.252;2023-05-01T09:02:20;101414.44;;;20.07;39.07
58243;BME280;50118;53.232;8.252;2023-05-01T09:04:47;101398.44;;;19.09;37.47
58243;BME280;50118;53.232;8.252;2023-05-01T09:07:15;101389.91;;;19.72;38.86
58243;BME280;50118;53.232;8.252;2023-05-01T09:09:40;101396.38;;;18.96;38.46
58243;BME280;50118;53.232;8.252;2023-05-01T09:12:22;101392.69;;;20.15;38.47
58243;BME280;50118;53.232;8.252;2023-05-01T09:14:53;101393.78;;;19.18;36.88
58243;BME280;50118;53.232;8.252;2023-05-01T09:17:20;101389.22;;;19.48;36.13
58243;BME280;50118;53.232;8.252;2023-05-01T09:19:47;101391.50;;;19.66;37.54
58243;BME280;50118;53.232;8.252;2023-05-01T09:22:13;101395.28;;;19.35;37.50
58243;BME280;50118;53.232;8.252;2023-05-01T09:24:39;101386.19;;;20.09;37.15
58243;BME280;50118;53.232;8.252;2023-05-01T09:27:05;101379.38;;;19.11;37.45
58243;BME280;50118;53.232;8.252;2023-05-01T09:34:37;101372.13;;;19.77;36.24
58243;BME280;50118;53.232;8.252;2023-05-01T09:37:03;101369.06;;;20.45;39.52
58243;BME280;50118;53.232;8.252;2023-05-01T09:39:28;101368.31;;;20.58;37.45
58243;BME280;50118;53.232;8.252;2023-05-01T09:41:54;101359.66;;;20.20;35.50
58243;BME280;50118;53.232;8.252;2023-05-01T09:44:20;101364.44;;;20.96;35.46
58243;BME280;50118;53.232;8.252;2023-05-01T09:46:45;101354.91;;;21.00;36.88
58243;BME280;50118;53.232;8.252;2023-05-01T09:49:11;101358.97;;;20.82;35.48
58243;BME280;50118;53.232;8.252;2023-05-01T09:51:37;101355.69;;;19.94;36.14
58243;BME280;50118;53.232;8.252;2023-05-01T09:54:03;101367.06;;;21.17;34.37
58243;BME280;50118;53.232;8.252;2023-05-01T09:56:32;101355.00;;;19.92;34.47
58243;BME280;50118;53.232;8.252;2023-05-01T09:59:17;101349.13;;;21.16;34.82
58243;BME280;50118;53.232;8.252;2023-05-01T10:01:45;101346.28;;;20.11;36.48
58243;BME280;50118;53.232;8.252;2023-05-01T10:04:12;101354.00;;;19.56;37.09
58243;BME280;50118;53.232;8.252;2023-05-01T10:06:38;101349.28;;;20.02;35.89
58243;BME280;50118;53.232;8.252;2023-05-01T10:09:05;101344.38;;;21.18;35.96
58243;BME280;50118;53.232;8.252;2023-05-01T10:11:50;101347.50;;;20.87;36.88
58243;BME280;50118;53.232;8.252;2023-05-01T10:14:16;101349.91;;;20.47;34.79
58243;BME280;50118;53.232;8.252;2023-05-01T10:16:42;101350.03;;;21.23;34.96
58243;BME280;50118;53.232;8.252;2023-05-01T10:19:08;101346.25;;;21.24;34.74
58243;BME280;50118;53.232;8.252;2023-05-01T10:21:34;101343.94;;;20.30;35.32
58243;BME280;50118;53.232;8.252;2023-05-01T10:24:01;101351.63;;;19.68;37.23
58243;BME280;50118;53.232;8.252;2023-05-01T10:26:32;101349.06;;;20.46;39.03
58243;BME280;50118;53.232;8.252;2023-05-01T10:28:59;101339.53;;;20.50;35.39
58243;BME280;50118;53.232;8.252;2023-05-01T10:31:26;101346.09;;;20.41;36.65
58243;BME280;50118;53.232;8.252;2023-05-01T10:33:53;101334.34;;;20.27;38.32
58243;BME280;50118;53.232;8.252;2023-05-01T10:36:41;101342.28;;;20.85;37.26
58243;BME280;50118;53.232;8.252;2023-05-01T10:39:30;101338.28;;;21.16;35.00
58243;BME280;50118;53.232;8.252;2023-05-01T10:44:27;101340.03;;;21.79;33.62
58243;BME280;50118;53.232;8.252;2023-05-01T10:46:53;101328.53;;;20.80;35.83
58243;BME280;50118;53.232;8.252;2023-05-01T10:49:18;101333.31;;;21.61;33.71
58243;BME280;50118;53.232;8.252;2023-05-01T10:54:29;101326.44;;;21.17;37.01
58243;BME280;50118;53.232;8.252;2023-05-01T10:57:00;101323.38;;;21.27;35.98
58243;BME280;50118;53.232;8.252;2023-05-01T10:59:27;101323.25;;;21.07;34.35
58243;BME280;50118;53.232;8.252;2023-05-01T11:02:21;101314.69;;;20.40;36.94
58243;BME280;50118;53.232;8.252;2023-05-01T11:04:48;101306.38;;;21.05;36.29
58243;BME280;50118;53.232;8.252;2023-05-01T11:07:17;101300.84;;;21.26;35.77
58243;BME280;50118;53.232;8.252;2023-05-01T11:09:44;101295.00;;;21.23;36.65
58243;BME280;50118;53.232;8.252;2023-05-01T11:15:01;101293.47;;;21.62;36.33
58243;BME280;50118;53.232;8.252;2023-05-01T11:20:10;101294.78;;;22.13;33.76
58243;BME280;50118;53.232;8.252;2023-05-01T11:22:37;101293.34;;;22.17;32.66
58243;BME280;50118;53.232;8.252;2023-05-01T11:25:19;101279.84;;;20.59;35.82
58243;BME280;50118;53.232;8.252;2023-05-01T11:27:50;101279.78;;;21.97;34.99
58243;BME280;50118;53.232;8.252;2023-05-01T11:30:16;101277.28;;;22.02;35.25
58243;BME280;50118;53.232;8.252;2023-05-01T11:32:44;101283.69;;;22.68;35.02
58243;BME280;50118;53.232;8.252;2023-05-01T11:35:21;101277.78;;;20.32;36.13
58243;BME280;50118;53.232;8.252;2023-05-01T11:37:48;101281.53;;;20.95;34.17
58243;BME280;50118;53.232;8.252;2023-05-01T11:42:44;101275.41;;;22.16;35.66
58243;BME280;50118;53.232;8.252;2023-05-01T11:45:10;101280.56;;;22.64;34.11
58243;BME280;50118;53.232;8.252;2023-05-01T11:47:36;101282.50;;;22.50;32.89
58243;BME280;50118;53.232;8.252;2023-05-01T11:50:02;101272.69;;;22.02;32.74
58243;BME280;50118;53.232;8.252;2023-05-01T11:52:28;101261.72;;;22.89;34.32
58243;BME280;50118;53.232;8.252;2023-05-01T11:54:54;101259.34;;;22.48;33.49
58243;BME280;50118;53.232;8.252;2023-05-01T11:57:19;101268.09;;;22.43;33.33
58243;BME280;50118;53.232;8.252;2023-05-01T11:59:46;101260.34;;;22.13;34.03
58243;BME280;50118;53.232;8.252;2023-05-01T12:02:19;101266.81;;;22.46;32.84
58243;BME280;50118;53.232;8.252;2023-05-01T12:04:45;101266.22;;;22.30;32.43
58243;BME280;50118;53.232;8.252;2023-05-01T12:07:21;101262.25;;;22.26;33.69
58243;BME280;50118;53.232;8.252;2023-05-01T12:09:47;101251.97;;;21.48;33.77
58243;BME280;50118;53.232;8.252;2023-05-01T12:12:13;101250.72;;;20.32;37.03
58243;BME280;50118;53.232;8.252;2023-05-01T12:14:39;101249.19;;;20.51;36.99
58243;BME280;50118;53.232;8.252;2023-05-01T12:17:05;101239.34;;;20.72;37.63
58243;BME280;50118;53.232;8.252;2023-05-01T12:19:31;101243.78;;;20.51;37.05
58243;BME280;50118;53.232;8.252;2023-05-01T12:22:07;101239.56;;;21.19;35.88
58243;BME280;50118;53.232;8.252;2023-05-01T12:24:32;101239.09;;;21.08;35.36
58243;BME280;50118;53.232;8.252;2023-05-01T12:27:01;101243.25;;;21.93;34.66
58243;BME280;50118;53.232;8.252;2023-05-01T12:29:47;101238.66;;;22.33;34.00
58243;BME280;50118;53.232;8.252;2023-05-01T12:32:14;101235.44;;;22.77;33.13
58243;BME280;50118;53.232;8.252;2023-05-01T12:34:41;101248.00;;;22.64;33.09
58243;BME280;50118;53.232;8.252;2023-05-01T12:37:07;101241.81;;;20.67;35.12
58243;BME280;50118;53.232;8.252;2023-05-01T12:39:39;101226.28;;;20.47;37.18
58243;BME280;50118;53.232;8.252;2023-05-01T12:42:13;101233.31;;;21.18;36.30
58243;BME280;50118;53.232;8.252;2023-05-01T12:44:40;101231.16;;;22.02;36.74
58243;BME280;50118;53.232;8.252;2023-05-01T12:47:06;101225.31;;;23.04;34.59
58243;BME280;50118;53.232;8.252;2023-05-01T12:49:33;101225.81;;;23.64;33.57
58243;BME280;50118;53.232;8.252;2023-05-01T12:52:02;101226.22;;;22.84;34.27
58243;BME280;50118;53.232;8.252;2023-05-01T12:57:10;101223.22;;;23.12;35.61
58243;BME280;50118;53.232;8.252;2023-05-01T12:59:37;101223.63;;;23.73;34.17
58243;BME280;50118;53.232;8.252;2023-05-01T13:02:10;101218.09;;;23.61;34.36
58243;BME280;50118;53.232;8.252;2023-05-01T13:04:37;101221.72;;;23.17;33.97
58243;BME280;50118;53.232;8.252;2023-05-01T13:07:29;101221.22;;;22.74;34.71
58243;BME280;50118;53.232;8.252;2023-05-01T13:09:55;101212.78;;;22.24;36.74
58243;BME280;50118;53.232;8.252;2023-05-01T13:12:22;101212.19;;;21.82;36.27
58243;BME280;50118;53.232;8.252;2023-05-01T13:14:48;101216.78;;;21.75;36.00
58243;BME280;50118;53.232;8.252;2023-05-01T13:17:27;101211.47;;;21.40;37.24
58243;BME280;50118;53.232;8.252;2023-05-01T13:19:54;101206.75;;;21.69;37.34
58243;BME280;50118;53.232;8.252;2023-05-01T13:22:33;101223.47;;;21.11;36.94
58243;BME280;50118;53.232;8.252;2023-05-01T13:25:00;101217.09;;;21.45;41.24